Time;durP1;ratioP1;P1;durP2;ratioP2;P2;SDS_P1;SDS_P2;PMS_P1;PMS_P2;Temp;Humidity;BMP_temperature;BMP_pressure;BME280_temperature;BME280_humidity;BME280_pressure;Samples;Min_cycle;Max_cycle;Signal;HPM_P1;HPM_P2
2022/01/06 00:01:40;;;;;;;6.68;4.07;;;;;;;-1.09;76.82;95426.06;6208660;23;20068;-64
2022/01/06 00:04:05;;;;;;;4.60;3.95;;;;;;;-1.12;77.25;95424.47;6206183;23;20219;-64
2022/01/06 00:06:36;;;;;;;4.90;3.70;;;;;;;-1.20;77.87;95424.88;6206751;23;20081;-64
2022/01/06 00:09:02;;;;;;;4.75;4.28;;;;;;;-1.23;78.43;95427.56;6208434;23;20008;-64
2022/01/06 00:11:28;;;;;;;13.15;7.60;;;;;;;-1.20;78.17;95418.84;6208749;23;20321;-64
2022/01/06 00:14:03;;;;;;;15.57;7.65;;;;;;;-1.26;78.15;95417.41;6208405;23;20031;-65
2022/01/06 00:16:44;;;;;;;13.05;7.05;;;;;;;-1.25;78.91;95415.66;6208913;23;20047;-64
2022/01/06 00:24:23;;;;;;;8.40;5.75;;;;;;;-1.39;82.94;95430.09;6208481;23;20038;-64
2022/01/06 00:26:49;;;;;;;7.68;5.38;;;;;;;-1.37;82.38;95424.88;6208850;23;20145;-64
2022/01/06 00:29:16;;;;;;;5.68;4.68;;;;;;;-1.35;82.12;95425.63;6208581;23;19997;-64
2022/01/06 00:31:41;;;;;;;7.00;4.20;;;;;;;-1.45;83.68;95425.25;6208279;23;20008;-64
2022/01/06 00:34:10;;;;;;;5.35;4.05;;;;;;;-1.49;83.04;95428.88;6208428;23;20221;-64
2022/01/06 00:36:40;;;;;;;6.45;4.05;;;;;;;-1.46;82.78;95433.91;6208767;23;20080;-64
2022/01/06 00:39:06;;;;;;;4.95;3.47;;;;;;;-1.49;83.14;95434.88;6205903;22;20036;-64
2022/01/06 00:41:34;;;;;;;6.13;4.65;;;;;;;-1.52;84.03;95447.94;6208060;23;20479;-64
2022/01/06 00:43:59;;;;;;;6.90;4.07;;;;;;;-1.56;83.70;95442.97;6208551;23;20115;-64
2022/01/06 00:46:25;;;;;;;6.50;4.07;;;;;;;-1.61;84.02;95456.94;6208303;23;20503;-64
2022/01/06 00:48:50;;;;;;;4.97;3.92;;;;;;;-1.65;84.51;95464.94;6208109;23;20007;-64
2022/01/06 00:51:16;;;;;;;5.18;4.32;;;;;;;-1.65;84.27;95460.59;6208204;23;20042;-64
2022/01/06 00:53:41;;;;;;;5.60;4.55;;;;;;;-1.60;83.63;95463.78;6206712;23;20028;-64
2022/01/06 00:56:06;;;;;;;5.00;4.10;;;;;;;-1.60;84.82;95474.13;6207729;23;20081;-64
2022/01/06 00:58:32;;;;;;;4.10;3.70;;;;;;;-1.64;85.76;95471.78;6208272;23;20467;-64
2022/01/06 01:00:57;;;;;;;5.50;4.40;;;;;;;-1.76;86.46;95468.84;6208280;23;20451;-64
2022/01/06 01:03:23;;;;;;;5.00;4.13;;;;;;;-1.82;86.71;95468.28;6206468;23;20017;-64
2022/01/06 01:05:51;;;;;;;7.70;5.07;;;;;;;-1.90;86.17;95472.09;6207569;23;20001;-64
2022/01/06 01:08:17;;;;;;;6.10;4.15;;;;;;;-1.96;86.79;95479.25;6206595;22;20047;-64
2022/01/06 01:10:47;;;;;;;9.32;4.50;;;;;;;-2.00;87.39;95490.63;6207887;23;20027;-64
2022/01/06 01:13:13;;;;;;;6.30;4.00;;;;;;;-2.09;87.43;95487.59;6207847;23;20388;-64
2022/01/06 01:15:52;;;;;;;3.80;3.50;;;;;;;-2.15;88.09;95493.00;6209758;23;20577;-64
2022/01/06 01:18:19;;;;;;;9.75;4.85;;;;;;;-2.12;87.66;95494.63;6209600;23;20080;-64
2022/01/06 01:20:45;;;;;;;8.95;5.40;;;;;;;-2.13;87.77;95492.94;6207576;23;20447;-64
2022/01/06 01:23:11;;;;;;;7.13;5.57;;;;;;;-2.12;86.60;95500.59;6209099;23;20057;-64
2022/01/06 01:25:36;;;;;;;4.50;4.10;;;;;;;-2.00;85.37;95506.13;6209510;23;20001;-64
2022/01/06 01:28:04;;;;;;;10.82;4.57;;;;;;;-1.96;85.12;95503.34;6208907;23;20035;-64
2022/01/06 01:30:32;;;;;;;7.03;5.47;;;;;;;-2.00;85.68;95512.09;6209568;23;20008;-64
2022/01/06 01:32:59;;;;;;;6.50;4.47;;;;;;;-2.13;86.13;95523.91;6207890;23;20012;-64
2022/01/06 01:35:31;;;;;;;10.68;5.00;;;;;;;-2.25;86.72;95517.53;6209363;23;20036;-64
2022/01/06 01:37:57;;;;;;;6.25;5.45;;;;;;;-2.29;87.05;95528.91;6209284;23;20015;-64
2022/01/06 01:40:22;;;;;;;6.03;4.07;;;;;;;-2.31;87.26;95537.53;6208802;23;20076;-64
2022/01/06 01:42:48;;;;;;;7.53;4.20;;;;;;;-2.33;86.79;95534.16;6209166;23;20039;-64
2022/01/06 01:45:13;;;;;;;8.73;5.93;;;;;;;-2.35;85.63;95530.00;6207936;23;20019;-64
2022/01/06 01:47:44;;;;;;;9.45;5.03;;;;;;;-2.35;86.21;95533.41;6207851;23;20348;-64
2022/01/06 01:50:15;;;;;;;5.85;4.90;;;;;;;-2.40;86.81;95532.78;6209370;23;20009;-64
2022/01/06 01:52:45;;;;;;;6.22;5.35;;;;;;;-2.54;88.51;95532.53;6209552;23;20023;-63
2022/01/06 01:55:17;;;;;;;6.65;4.53;;;;;;;-2.65;89.29;95541.56;6209173;23;20157;-64
2022/01/06 01:57:42;;;;;;;6.15;4.55;;;;;;;-2.68;89.23;95541.69;6207550;23;20020;-64
2022/01/06 02:00:10;;;;;;;5.25;4.72;;;;;;;-2.72;89.17;95539.31;6209078;23;20096;-64
2022/01/06 02:02:36;;;;;;;5.40;4.57;;;;;;;-2.72;88.87;95544.47;6209163;23;20417;-64
2022/01/06 02:05:02;;;;;;;6.75;4.93;;;;;;;-2.74;88.66;95542.78;6208876;23;20071;-64
2022/01/06 02:07:27;;;;;;;9.45;5.20;;;;;;;-2.74;89.02;95544.53;6209143;23;20061;-64
2022/01/06 02:09:53;;;;;;;7.60;4.78;;;;;;;-2.75;88.60;95548.84;6209226;23;20037;-64
2022/01/06 02:12:26;;;;;;;6.18;4.72;;;;;;;-2.84;90.71;95545.81;6209352;23;20008;-64
2022/01/06 02:14:51;;;;;;;11.00;5.80;;;;;;;-2.85;90.71;95560.44;6209197;23;20005;-64
2022/01/06 02:17:17;;;;;;;7.88;4.95;;;;;;;-2.82;90.25;95564.63;6208815;23;20474;-64
2022/01/06 02:20:14;;;;;;;10.95;5.65;;;;;;;-2.83;91.18;95561.22;6207770;23;20013;-64
2022/01/06 02:22:39;;;;;;;8.10;5.13;;;;;;;-2.80;90.96;95563.66;6233899;23;20077;-64
2022/01/06 02:25:28;;;;;;;10.68;7.43;;;;;;;-2.78;90.94;95559.28;6209030;23;20000;-64
2022/01/06 02:27:54;;;;;;;6.50;5.35;;;;;;;-2.79;90.11;95552.47;6207446;22;20021;-64
2022/01/06 02:30:22;;;;;;;11.40;6.03;;;;;;;-2.82;91.84;95555.16;6209335;23;20007;-64
2022/01/06 02:32:48;;;;;;;8.02;5.57;;;;;;;-2.83;92.83;95558.66;6209198;23;20066;-64
2022/01/06 02:35:16;;;;;;;8.15;5.32;;;;;;;-2.84;93.05;95562.13;6209027;23;20016;-64
2022/01/06 02:37:42;;;;;;;10.13;4.40;;;;;;;-2.87;93.82;95567.41;6209126;23;20000;-64
2022/01/06 02:40:10;;;;;;;5.55;4.15;;;;;;;-2.88;93.86;95570.84;6205894;23;20021;-63
2022/01/06 02:42:43;;;;;;;4.40;3.88;;;;;;;-2.81;93.58;95566.28;6207831;23;20009;-64
2022/01/06 02:45:10;;;;;;;5.32;3.28;;;;;;;-2.73;92.96;95579.72;6209295;22;20016;-64
2022/01/06 02:47:35;;;;;;;4.40;3.60;;;;;;;-2.69;92.65;95568.38;6209379;22;20065;-63
2022/01/06 02:50:01;;;;;;;5.50;4.05;;;;;;;-2.64;92.50;95579.31;6209733;22;20032;-64
2022/01/06 02:52:26;;;;;;;7.45;5.05;;;;;;;-2.59;90.54;95581.72;6209200;23;20507;-64
2022/01/06 02:54:51;;;;;;;4.78;3.65;;;;;;;-2.51;89.35;95581.41;6207216;23;20009;-64
2022/01/06 02:57:17;;;;;;;5.00;3.50;;;;;;;-2.46;88.53;95577.69;6207807;23;20005;-64
2022/01/06 02:59:42;;;;;;;7.35;4.60;;;;;;;-2.43;88.06;95578.47;6209117;23;20012;-64
2022/01/06 03:02:08;;;;;;;8.27;5.07;;;;;;;-2.42;87.04;95578.41;6207263;23;20363;-64
2022/01/06 03:04:33;;;;;;;6.05;3.83;;;;;;;-2.41;86.46;95572.34;6209016;23;20122;-64
2022/01/06 03:07:01;;;;;;;16.58;10.23;;;;;;;-2.39;86.83;95577.47;6208966;23;20008;-64
2022/01/06 03:09:36;;;;;;;6.53;4.35;;;;;;;-2.43;85.98;95574.16;6208956;23;20001;-64
2022/01/06 03:12:02;;;;;;;;;;;;;;;-2.42;85.76;95573.25;6207853;23;20008;-64
2022/01/06 03:14:27;;;;;;;;;;;;;;;-2.46;86.50;95571.72;6209803;23;20274;-64
2022/01/06 03:16:53;;;;;;;5.77;4.47;;;;;;;-2.53;86.44;95572.91;6209092;23;20335;-62
2022/01/06 03:19:18;;;;;;;5.68;4.10;;;;;;;-2.55;86.92;95566.94;6206985;23;20005;-63
2022/01/06 03:21:43;;;;;;;5.32;4.18;;;;;;;-2.59;87.92;95564.50;6208734;23;20035;-63
2022/01/06 03:24:09;;;;;;;5.28;4.78;;;;;;;-2.60;86.35;95572.31;6208433;23;20015;-63
2022/01/06 03:26:34;;;;;;;5.68;3.70;;;;;;;-2.65;85.97;95569.91;6206557;23;20016;-64
2022/01/06 03:28:59;;;;;;;4.07;3.63;;;;;;;-2.65;84.90;95572.50;6209038;23;20004;-63
2022/01/06 03:31:25;;;;;;;13.00;6.40;;;;;;;-2.67;84.66;95576.88;6208809;23;20004;-63
2022/01/06 03:33:51;;;;;;;11.68;5.97;;;;;;;-2.69;84.45;95583.84;6206547;23;20012;-63
2022/01/06 03:36:16;;;;;;;9.52;6.25;;;;;;;-2.68;84.55;95598.41;6208881;23;20344;-64
2022/01/06 03:38:42;;;;;;;19.42;7.70;;;;;;;-2.73;85.75;95590.03;6208414;23;20011;-64
2022/01/06 03:41:07;;;;;;;9.85;5.20;;;;;;;-2.75;86.50;95594.41;6208012;23;20017;-64
2022/01/06 03:43:33;;;;;;;6.93;4.20;;;;;;;-2.76;85.78;95590.16;6207954;23;20091;-63
2022/01/06 03:45:58;;;;;;;3.95;3.45;;;;;;;-2.79;86.05;95600.56;6208680;23;20063;-64
2022/01/06 03:48:24;;;;;;;4.03;3.42;;;;;;;-2.83;85.85;95599.03;6209147;23;20146;-63
2022/01/06 03:50:49;;;;;;;5.28;3.60;;;;;;;-2.89;86.40;95603.53;6208761;23;20005;-64
2022/01/06 03:53:14;;;;;;;4.55;4.00;;;;;;;-2.93;85.39;95608.84;6206954;23;20004;-64
2022/01/06 03:55:40;;;;;;;4.18;3.80;;;;;;;-2.96;84.89;95604.69;6208714;23;20020;-63
2022/01/06 03:58:05;;;;;;;4.35;3.95;;;;;;;-2.98;84.54;95597.91;6208713;23;20054;-63
2022/01/06 04:00:31;;;;;;;3.53;2.72;;;;;;;-2.95;84.67;95606.38;6208772;23;20004;-63
2022/01/06 04:02:57;;;;;;;3.00;2.80;;;;;;;-2.99;84.84;95607.34;6208952;23;20073;-63
2022/01/06 04:05:22;;;;;;;2.97;2.72;;;;;;;-3.02;84.23;95616.06;6208811;23;20005;-64
2022/01/06 04:07:48;;;;;;;3.90;3.35;;;;;;;-3.05;84.21;95608.47;6208890;23;20040;-63
2022/01/06 04:10:13;;;;;;;3.17;2.97;;;;;;;-3.03;83.91;95621.28;6208995;23;20009;-64
2022/01/06 04:12:39;;;;;;;5.07;3.20;;;;;;;-3.06;85.44;95619.66;6207444;23;20524;-64
2022/01/06 04:15:12;;;;;;;3.35;3.05;;;;;;;-3.05;85.71;95623.06;6209054;23;20004;-63
2022/01/06 04:17:38;;;;;;;3.55;3.25;;;;;;;-3.04;85.36;95624.75;6209315;22;20015;-63
2022/01/06 04:20:04;;;;;;;2.85;2.65;;;;;;;-3.03;85.16;95623.84;6208857;23;20001;-63
2022/01/06 04:22:30;;;;;;;2.88;2.67;;;;;;;-3.05;84.23;95625.66;6208019;23;20009;-63
2022/01/06 04:24:55;;;;;;;3.40;3.05;;;;;;;-3.14;85.30;95626.84;6208669;23;20009;-63
2022/01/06 04:27:20;;;;;;;4.57;3.15;;;;;;;-3.15;84.75;95632.06;6181651;23;19996;-63
2022/01/06 04:29:46;;;;;;;5.65;3.30;;;;;;;-3.12;84.54;95629.38;6207509;23;20000;-63
2022/01/06 04:32:11;;;;;;;7.47;3.28;;;;;;;-3.18;84.91;95621.00;6208785;23;20001;-63
2022/01/06 04:34:37;;;;;;;4.38;3.42;;;;;;;-3.17;85.84;95634.69;6207267;23;20431;-64
2022/01/06 04:37:02;;;;;;;3.08;2.78;;;;;;;-3.24;84.69;95641.81;6208575;23;20007;-63
2022/01/06 04:39:28;;;;;;;4.22;3.03;;;;;;;-3.15;84.52;95640.63;6208452;23;20005;-63
2022/01/06 04:41:53;;;;;;;3.05;2.80;;;;;;;-3.23;84.43;95646.06;6208667;23;20379;-63
2022/01/06 04:44:18;;;;;;;3.83;3.03;;;;;;;-3.28;85.55;95634.28;6208370;23;20337;-63
2022/01/06 04:46:44;;;;;;;5.85;5.25;;;;;;;-3.29;86.74;95637.75;6208377;23;20313;-63
2022/01/06 04:49:10;;;;;;;6.50;5.47;;;;;;;-3.32;87.49;95630.97;6208570;23;20022;-63
2022/01/06 04:51:35;;;;;;;4.75;3.80;;;;;;;-3.30;86.87;95634.34;6207053;23;20058;-63
2022/01/06 04:54:01;;;;;;;5.82;4.30;;;;;;;-3.35;87.24;95636.25;6208874;23;20033;-63
2022/01/06 04:56:26;;;;;;;7.38;4.72;;;;;;;-3.38;87.82;95641.53;6206769;23;20088;-63
2022/01/06 04:58:52;;;;;;;4.45;3.47;;;;;;;-3.40;87.81;95638.16;6207178;23;20443;-63
2022/01/06 05:01:17;;;;;;;4.40;4.00;;;;;;;-3.42;87.86;95634.81;6207016;23;20442;-63
2022/01/06 05:03:43;;;;;;;4.63;3.10;;;;;;;-3.45;87.55;95644.31;6208164;23;20015;-63
2022/01/06 05:06:08;;;;;;;3.80;3.50;;;;;;;-3.46;87.71;95650.34;6208223;23;20178;-63
2022/01/06 05:08:34;;;;;;;5.63;4.13;;;;;;;-3.53;87.47;95651.50;6208261;23;20079;-63
2022/01/06 05:10:59;;;;;;;6.03;4.25;;;;;;;-3.52;88.81;95652.34;6208124;23;20123;-62
2022/01/06 05:13:24;;;;;;;6.05;3.47;;;;;;;-3.53;88.73;95656.63;6206724;23;20004;-62
2022/01/06 05:15:50;;;;;;;3.75;3.45;;;;;;;-3.59;88.72;95659.44;6208143;23;20077;-62
2022/01/06 05:18:15;;;;;;;3.78;3.08;;;;;;;-3.57;88.72;95657.66;6206622;23;20013;-62
2022/01/06 05:20:43;;;;;;;3.92;3.60;;;;;;;-3.58;87.53;95661.13;6207260;23;20011;-62
2022/01/06 05:23:10;;;;;;;4.75;3.42;;;;;;;-3.57;88.05;95670.50;6208522;23;20016;-62
2022/01/06 05:25:36;;;;;;;3.25;3.00;;;;;;;-3.56;87.52;95658.47;6208703;23;20334;-63
2022/01/06 05:28:02;;;;;;;3.60;3.28;;;;;;;-3.52;88.67;95663.47;6207725;23;20024;-62
2022/01/06 05:30:27;;;;;;;3.63;3.30;;;;;;;-3.54;88.05;95660.09;6208176;23;20459;-61
2022/01/06 05:32:52;;;;;;;5.80;3.17;;;;;;;-3.52;87.57;95665.22;6206818;23;20036;-62
2022/01/06 05:35:18;;;;;;;7.57;3.08;;;;;;;-3.52;88.20;95672.94;6208224;23;20435;-62
2022/01/06 05:37:44;;;;;;;4.57;3.38;;;;;;;-3.53;87.45;95676.41;6208436;23;20023;-62
2022/01/06 05:40:10;;;;;;;3.00;2.80;;;;;;;-3.53;87.77;95673.84;6207482;23;20324;-62
2022/01/06 05:42:35;;;;;;;7.13;4.15;;;;;;;-3.60;89.05;95675.78;6208112;23;20473;-62
2022/01/06 05:45:01;;;;;;;4.13;3.72;;;;;;;-3.68;89.16;95675.19;6208188;23;20000;-62
2022/01/06 05:47:26;;;;;;;3.35;3.05;;;;;;;-3.71;88.76;95675.31;6208361;23;20009;-62
2022/01/06 05:49:52;;;;;;;5.15;3.42;;;;;;;-3.76;89.11;95671.19;6208243;23;20344;-62
2022/01/06 05:52:17;;;;;;;4.63;3.75;;;;;;;-3.75;89.22;95672.03;6208620;23;20036;-62
2022/01/06 05:54:43;;;;;;;3.72;3.40;;;;;;;-3.72;88.46;95686.50;6208406;23;20057;-62
2022/01/06 05:57:09;;;;;;;5.22;3.90;;;;;;;-3.78;88.53;95683.25;6209414;23;20147;-62
2022/01/06 05:59:34;;;;;;;5.85;4.05;;;;;;;-3.77;89.38;95684.09;6209804;23;20321;-62
2022/01/06 06:02:00;;;;;;;6.10;4.05;;;;;;;-3.78;89.93;95683.25;6209723;23;20313;-62
2022/01/06 06:04:26;;;;;;;4.80;3.80;;;;;;;-3.71;89.21;95685.63;6209687;23;20020;-62
2022/01/06 06:06:51;;;;;;;5.45;4.95;;;;;;;-3.75;89.41;95692.63;6209055;23;20004;-62
2022/01/06 06:09:17;;;;;;;5.22;3.85;;;;;;;-3.75;88.78;95693.44;6209880;23;20029;-62
2022/01/06 06:11:42;;;;;;;4.88;3.60;;;;;;;-3.68;88.66;95690.66;6209717;23;20005;-63
2022/01/06 06:14:08;;;;;;;9.48;3.60;;;;;;;-3.63;88.18;95693.91;6209794;23;20365;-63
2022/01/06 06:16:33;;;;;;;7.15;4.57;;;;;;;-3.71;89.87;95690.75;6208047;23;20333;-63
2022/01/06 06:18:59;;;;;;;5.75;4.05;;;;;;;-3.80;90.16;95687.63;6209413;23;20003;-62
2022/01/06 06:21:24;;;;;;;8.30;5.00;;;;;;;-3.92;91.20;95686.31;6208538;23;20098;-62
2022/01/06 06:23:50;;;;;;;5.53;4.20;;;;;;;-3.99;92.20;95690.00;6209636;23;20009;-62
2022/01/06 06:26:16;;;;;;;6.10;4.53;;;;;;;-4.04;91.27;95703.03;6206604;23;20467;-62
2022/01/06 06:28:41;;;;;;;7.95;5.18;;;;;;;-4.05;91.23;95700.50;6209146;23;20008;-62
2022/01/06 06:31:07;;;;;;;6.07;5.38;;;;;;;-4.09;91.74;95694.66;6209030;23;20008;-63
2022/01/06 06:33:32;;;;;;;7.20;4.72;;;;;;;-4.12;91.85;95688.75;6209142;23;20444;-62
2022/01/06 06:35:57;;;;;;;7.43;5.00;;;;;;;-4.19;92.82;95690.69;6208731;23;20012;-62
2022/01/06 06:38:23;;;;;;;5.28;4.40;;;;;;;-4.22;92.94;95694.19;6208649;23;20071;-63
2022/01/06 06:40:48;;;;;;;8.07;5.78;;;;;;;-4.25;93.08;95699.44;6208849;23;20020;-62
2022/01/06 06:43:14;;;;;;;11.27;6.93;;;;;;;-4.24;92.84;95705.44;6208739;23;20008;-62
2022/01/06 06:45:40;;;;;;;11.00;7.32;;;;;;;-4.20;92.89;95704.44;6209323;23;20005;-62
2022/01/06 06:48:06;;;;;;;13.43;8.23;;;;;;;-4.19;92.76;95700.97;6206177;23;19996;-62
2022/01/06 06:50:31;;;;;;;11.05;6.55;;;;;;;-4.19;93.22;95708.69;6209225;23;20343;-62
2022/01/06 06:52:56;;;;;;;8.02;6.88;;;;;;;-4.21;93.66;95706.16;6207301;23;20007;-63
2022/01/06 06:55:22;;;;;;;7.07;5.88;;;;;;;-4.33;93.34;95715.13;6209161;23;20037;-65
2022/01/06 06:57:47;;;;;;;6.10;5.47;;;;;;;-4.43;93.72;95718.03;6208359;23;20013;-63
2022/01/06 07:00:13;;;;;;;6.95;6.35;;;;;;;-4.45;94.05;95723.25;6206066;22;20054;-62
2022/01/06 07:02:39;;;;;;;6.88;5.28;;;;;;;-4.45;94.11;95723.25;6208595;23;20012;-63
2022/01/06 07:05:06;;;;;;;5.50;4.40;;;;;;;-4.44;93.31;95732.63;6207660;23;20466;-65
2022/01/06 07:07:31;;;;;;;12.45;4.63;;;;;;;-4.44;93.64;95724.06;6208993;23;20004;-63
2022/01/06 07:09:57;;;;;;;10.68;7.43;;;;;;;-4.41;92.63;95724.00;6208115;23;20007;-61
2022/01/06 07:12:22;;;;;;;28.40;20.48;;;;;;;-4.39;93.05;95730.75;6206622;22;20015;-61
2022/01/06 07:14:48;;;;;;;15.82;11.00;;;;;;;-4.40;93.21;95730.81;6208696;23;20428;-64
2022/01/06 07:17:13;;;;;;;26.70;17.48;;;;;;;-4.44;94.60;95734.34;6208914;23;20011;-60
2022/01/06 07:19:39;;;;;;;69.03;30.80;;;;;;;-4.44;94.12;95742.91;6208537;23;20012;-61
2022/01/06 07:22:05;;;;;;;45.00;23.90;;;;;;;-4.38;93.04;95744.47;6208842;23;20012;-61
2022/01/06 07:24:31;;;;;;;35.60;20.40;;;;;;;-4.32;92.54;95742.50;6208318;23;20005;-62
2022/01/06 07:26:56;;;;;;;21.30;13.02;;;;;;;-4.38;93.35;95742.72;6207768;23;20012;-61
2022/01/06 07:29:22;;;;;;;15.55;10.73;;;;;;;-4.41;93.97;95749.69;6209380;23;20095;-61
2022/01/06 07:31:47;;;;;;;19.55;14.82;;;;;;;-4.48;94.05;95744.75;6209422;23;20080;-62
2022/01/06 07:34:12;;;;;;;16.20;12.50;;;;;;;-4.49;94.51;95752.50;6209441;23;20450;-61
2022/01/06 07:36:38;;;;;;;12.40;8.18;;;;;;;-4.45;93.82;95751.53;6209391;23;20071;-61
2022/01/06 07:39:04;;;;;;;13.73;9.50;;;;;;;-4.40;94.14;95743.66;6208212;23;20001;-62
2022/01/06 07:41:29;;;;;;;20.45;9.25;;;;;;;-4.42;94.06;95748.84;6208939;23;20008;-67
2022/01/06 07:43:55;;;;;;;10.85;8.00;;;;;;;-4.39;94.47;95761.59;6208120;23;20060;-59
2022/01/06 07:46:20;;;;;;;11.85;9.13;;;;;;;-4.35;93.40;95765.75;6206474;23;20039;-60
2022/01/06 07:48:57;;;;;;;17.73;7.88;;;;;;;-4.30;94.23;95759.63;6207781;23;20080;-60
2022/01/06 07:51:25;;;;;;;11.82;8.25;;;;;;;-4.26;92.71;95763.78;6207850;23;20063;-60
2022/01/06 07:53:51;;;;;;;12.30;8.48;;;;;;;-4.23;92.97;95754.22;6207130;23;20016;-59
2022/01/06 07:56:16;;;;;;;11.50;8.43;;;;;;;-4.22;92.91;95757.66;6208434;23;20020;-59
2022/01/06 07:58:42;;;;;;;17.65;7.25;;;;;;;-4.24;93.42;95751.72;6208021;23;20005;-60
2022/01/06 08:01:09;;;;;;;13.77;7.90;;;;;;;-4.25;93.32;95765.47;6208400;23;20348;-60
2022/01/06 08:03:34;;;;;;;12.25;8.70;;;;;;;-4.28;93.15;95758.69;6208070;23;20492;-59
2022/01/06 08:06:00;;;;;;;11.00;8.20;;;;;;;-4.28;93.70;95763.00;6208757;23;20008;-60
2022/01/06 08:08:25;;;;;;;15.15;8.98;;;;;;;-4.28;93.59;95763.00;6208434;23;20325;-60
2022/01/06 08:10:50;;;;;;;12.23;10.10;;;;;;;-4.29;94.01;95759.56;6209124;23;20117;-59
2022/01/06 08:13:16;;;;;;;14.38;10.75;;;;;;;-4.28;93.92;95757.84;6208298;23;20004;-60
2022/01/06 08:15:41;;;;;;;13.43;12.02;;;;;;;-4.23;93.54;95763.69;6208132;23;20009;-59
2022/01/06 08:18:07;;;;;;;15.65;14.02;;;;;;;-4.23;93.79;95755.97;6208161;23;20320;-60
2022/01/06 08:20:35;;;;;;;17.75;15.00;;;;;;;-4.24;94.01;95762.00;6208330;23;20005;-60
2022/01/06 08:23:00;;;;;;;11.73;10.23;;;;;;;-4.19;92.45;95765.25;6208247;23;20020;-60
2022/01/06 08:25:26;;;;;;;11.73;10.38;;;;;;;-4.20;92.65;95767.00;6208708;23;20053;-59
2022/01/06 08:27:51;;;;;;;13.75;11.38;;;;;;;-4.17;92.55;95768.63;6207765;23;20393;-59
2022/01/06 08:30:17;;;;;;;9.80;8.90;;;;;;;-4.13;91.84;95767.63;6208898;23;20009;-60
2022/01/06 08:32:42;;;;;;;12.48;8.85;;;;;;;-4.08;91.77;95773.47;6208963;23;20016;-60
2022/01/06 08:35:08;;;;;;;10.02;8.20;;;;;;;-3.98;89.84;95768.88;6208577;23;20035;-59
2022/01/06 08:37:33;;;;;;;8.57;7.60;;;;;;;-3.96;89.79;95767.06;6209002;23;20009;-60
2022/01/06 08:39:59;;;;;;;7.07;6.35;;;;;;;-3.93;90.53;95766.13;6208959;23;20507;-59
2022/01/06 08:42:24;;;;;;;8.20;7.10;;;;;;;-3.90;90.11;95771.16;6208874;23;20455;-60
2022/01/06 08:44:50;;;;;;;8.73;7.85;;;;;;;-3.90;89.99;95774.56;6208706;23;20035;-60
2022/01/06 08:47:15;;;;;;;7.57;6.78;;;;;;;-3.88;90.03;95771.94;6208572;23;20076;-60
2022/01/06 08:49:41;;;;;;;11.25;8.95;;;;;;;-3.84;89.16;95775.25;6207684;23;20000;-60
2022/01/06 08:52:07;;;;;;;16.02;11.18;;;;;;;-3.85;89.26;95769.28;6207309;23;20512;-60
2022/01/06 08:54:32;;;;;;;11.88;9.05;;;;;;;-3.81;88.87;95776.00;6208989;23;20001;-59
2022/01/06 08:56:58;;;;;;;7.35;5.63;;;;;;;-3.77;88.65;95779.28;6208190;23;20017;-60
2022/01/06 08:59:24;;;;;;;5.07;4.38;;;;;;;-3.81;88.84;95783.72;6208851;23;20078;-60
2022/01/06 09:01:49;;;;;;;5.75;4.75;;;;;;;-3.83;88.75;95787.22;6207735;23;20005;-59
2022/01/06 09:04:15;;;;;;;8.20;6.45;;;;;;;-3.85;89.80;95789.88;6207874;23;20084;-59
2022/01/06 09:06:40;;;;;;;8.80;6.63;;;;;;;-3.81;89.32;95794.00;6208010;23;20012;-59
2022/01/06 09:09:06;;;;;;;8.60;7.70;;;;;;;-3.77;89.22;95797.31;6208298;23;20000;-59
2022/01/06 09:11:31;;;;;;;9.25;7.43;;;;;;;-3.79;90.15;95788.78;6208134;23;20012;-60
2022/01/06 09:13:56;;;;;;;13.05;7.55;;;;;;;-3.79;89.74;95799.94;6207473;23;20001;-59
2022/01/06 09:16:23;;;;;;;17.73;10.88;;;;;;;-3.71;89.53;95791.13;6208167;23;20001;-60
2022/01/06 09:18:49;;;;;;;14.35;11.05;;;;;;;-3.75;90.07;95804.09;6208968;23;20009;-60
2022/01/06 09:21:16;;;;;;;12.98;9.15;;;;;;;-3.78;91.21;95801.63;6208283;23;20334;-60
2022/01/06 09:23:42;;;;;;;10.00;8.63;;;;;;;-3.77;91.92;95798.16;6207634;23;20094;-59
2022/01/06 09:26:07;;;;;;;19.42;15.55;;;;;;;-3.72;90.40;95795.44;6208246;23;20348;-60
2022/01/06 09:28:33;;;;;;;28.10;20.67;;;;;;;-3.68;90.08;95794.44;6208093;23;20092;-60
2022/01/06 09:30:59;;;;;;;41.35;26.55;;;;;;;-3.63;89.84;95795.09;6208489;23;20016;-60
2022/01/06 09:33:25;;;;;;;37.33;25.08;;;;;;;-3.57;89.11;95788.91;6208346;23;20339;-60
2022/01/06 09:35:53;;;;;;;32.47;23.08;;;;;;;-3.51;89.10;95791.28;6209176;23;20049;-60
2022/01/06 09:38:18;;;;;;;19.02;13.75;;;;;;;-3.13;89.49;95793.38;6208996;23;20008;-60
2022/01/06 09:40:45;;;;;;;9.93;6.97;;;;;;;-2.43;87.15;95793.34;6208046;23;20325;-60
2022/01/06 09:43:12;;;;;;;16.40;9.93;;;;;;;-1.77;85.04;95791.56;6208832;23;20008;-59
2022/01/06 09:45:40;;;;;;;19.70;11.55;;;;;;;-1.43;82.08;95784.97;6208190;22;20012;-59
2022/01/06 09:48:05;;;;;;;10.65;8.30;;;;;;;-1.11;82.34;95782.72;6208687;23;20005;-60
2022/01/06 09:50:31;;;;;;;9.30;7.28;;;;;;;-0.88;79.71;95792.03;6207453;23;20462;-60
2022/01/06 09:52:57;;;;;;;19.80;13.77;;;;;;;-0.77;79.31;95788.16;6208660;23;20339;-59
2022/01/06 09:55:23;;;;;;;14.00;8.93;;;;;;;-0.94;80.84;95783.72;6207043;23;20098;-60
2022/01/06 09:57:56;;;;;;;7.32;5.00;;;;;;;-0.74;80.06;95783.66;6208604;23;20072;-60
2022/01/06 10:00:21;;;;;;;5.72;5.13;;;;;;;-0.65;78.64;95787.56;6209300;23;20335;-60
2022/01/06 10:02:53;;;;;;;12.57;5.35;;;;;;;-0.46;77.00;95784.13;6207884;23;20069;-60
2022/01/06 10:05:19;;;;;;;6.50;3.83;;;;;;;-0.33;76.56;95784.38;6208902;23;20008;-60
2022/01/06 10:07:44;;;;;;;4.70;4.25;;;;;;;-0.30;73.42;95792.00;6208979;23;20351;-60
2022/01/06 10:10:13;;;;;;;3.78;3.28;;;;;;;-0.17;73.27;95789.66;6209237;23;20008;-60
2022/01/06 10:12:40;;;;;;;4.20;3.58;;;;;;;-0.01;72.76;95789.75;6209298;23;20383;-59
2022/01/06 10:15:25;;;;;;;3.55;3.20;;;;;;;0.23;71.19;95805.03;6209113;23;20099;-59
2022/01/06 10:17:51;;;;;;;6.63;3.70;;;;;;;0.32;70.63;95801.09;6206058;22;20009;-60
2022/01/06 10:20:26;;;;;;;3.65;3.03;;;;;;;0.32;70.85;95793.34;6208896;23;20005;-60
2022/01/06 10:22:56;;;;;;;6.72;5.22;;;;;;;0.43;70.50;95791.88;6208705;23;20015;-60
2022/01/06 10:25:26;;;;;;;4.10;3.22;;;;;;;0.59;69.40;95796.28;6208915;23;20008;-60
2022/01/06 10:27:56;;;;;;;2.70;2.38;;;;;;;0.66;69.10;95797.69;6209056;23;20004;-60
2022/01/06 10:30:23;;;;;;;4.32;3.35;;;;;;;0.73;68.84;95790.41;6209232;23;20040;-60
2022/01/06 10:32:49;;;;;;;3.85;3.50;;;;;;;0.63;69.05;95791.81;6209198;23;20078;-60
2022/01/06 10:35:20;;;;;;;5.72;3.40;;;;;;;0.45;69.14;95797.00;6208110;23;20360;-60
2022/01/06 10:37:48;;;;;;;4.68;3.80;;;;;;;0.49;69.07;95790.75;6209033;23;20011;-60
2022/01/06 10:40:16;;;;;;;6.55;4.32;;;;;;;0.58;67.95;95784.25;6208715;23;20058;-60
2022/01/06 10:42:46;;;;;;;5.18;3.70;;;;;;;0.71;67.62;95774.94;6207696;23;20020;-60
2022/01/06 10:45:17;;;;;;;5.70;4.65;;;;;;;0.90;67.37;95776.59;6208654;23;20061;-61
2022/01/06 10:47:45;;;;;;;4.28;3.88;;;;;;;1.04;67.20;95785.38;6208891;23;20012;-60
2022/01/06 10:50:21;;;;;;;6.22;4.20;;;;;;;1.10;67.61;95774.66;6208848;23;20053;-60
2022/01/06 10:52:51;;;;;;;9.68;4.60;;;;;;;1.44;65.71;95780.66;6209216;23;20005;-60
2022/01/06 10:55:17;;;;;;;6.05;4.45;;;;;;;1.46;65.42;95777.97;6206783;23;20021;-60
2022/01/06 10:57:55;;;;;;;4.00;3.58;;;;;;;1.53;66.13;95776.72;6209085;23;20071;-60
2022/01/06 11:00:22;;;;;;;4.00;3.33;;;;;;;1.66;64.81;95772.53;6208849;23;20011;-60
2022/01/06 11:02:48;;;;;;;3.97;3.60;;;;;;;2.18;63.95;95767.06;6208347;23;20005;-60
2022/01/06 11:05:13;;;;;;;8.70;4.25;;;;;;;2.34;61.32;95764.41;6208893;23;20570;-60
2022/01/06 11:07:39;;;;;;;6.32;4.95;;;;;;;2.46;61.72;95761.09;6207039;23;20005;-60
2022/01/06 11:10:13;;;;;;;6.28;4.78;;;;;;;2.38;60.49;95764.13;6206634;23;20008;-59
2022/01/06 11:12:39;;;;;;;5.57;3.65;;;;;;;2.34;60.31;95761.81;6207791;22;20051;-60
2022/01/06 11:15:05;;;;;;;6.70;3.58;;;;;;;2.19;58.91;95761.78;6207555;23;20001;-61
2022/01/06 11:17:31;;;;;;;4.97;3.80;;;;;;;2.21;60.71;95759.94;6208101;23;20004;-60
2022/01/06 11:19:57;;;;;;;4.18;3.53;;;;;;;2.26;60.67;95770.06;6207999;23;20340;-61
2022/01/06 11:22:24;;;;;;;10.27;4.07;;;;;;;2.36;60.26;95771.19;6208233;23;20028;-60
2022/01/06 11:24:55;;;;;;;4.47;4.07;;;;;;;2.50;58.93;95774.75;6208373;23;20005;-60
2022/01/06 11:27:37;;;;;;;5.65;4.97;;;;;;;2.56;58.16;95776.97;6208758;23;20134;-60
2022/01/06 11:30:14;;;;;;;4.20;3.42;;;;;;;2.94;57.83;95765.22;6208448;23;20015;-60
2022/01/06 11:32:42;;;;;;;3.28;3.08;;;;;;;3.27;56.16;95754.50;6208936;23;20077;-60
2022/01/06 11:35:15;;;;;;;3.72;3.40;;;;;;;3.32;55.00;95764.63;6209084;23;20004;-60